createdAt,value
2023-03-17T00:00:55.826Z,85.82
2023-03-17T00:01:55.876Z,85.30
2023-03-17T00:02:55.806Z,85.92
2023-03-17T00:03:55.832Z,85.51
2023-03-17T00:04:55.803Z,85.10
2023-03-17T00:05:55.833Z,85.92
2023-03-17T00:06:55.787Z,85.41
2023-03-17T00:07:55.796Z,85.92
2023-03-17T00:08:55.787Z,86.23
2023-03-17T00:09:55.791Z,85.20
2023-03-17T00:10:55.772Z,85.10
2023-03-17T00:11:55.774Z,85.10
2023-03-17T00:12:55.764Z,85.41
2023-03-17T00:13:55.765Z,85.71
2023-03-17T00:14:55.751Z,85.82
2023-03-17T00:15:55.822Z,85.71
2023-03-17T00:16:55.742Z,85.30
2023-03-17T00:17:55.747Z,85.92
2023-03-17T00:18:55.733Z,85.51
2023-03-17T00:19:55.734Z,85.92
2023-03-17T00:20:55.726Z,84.69
2023-03-17T00:21:55.757Z,86.02
2023-03-17T00:22:55.719Z,85.41
2023-03-17T00:23:55.718Z,84.99
2023-03-17T00:24:55.711Z,86.02
2023-03-17T00:25:55.711Z,85.30
2023-03-17T00:26:55.722Z,85.41
2023-03-17T00:27:55.702Z,85.71
2023-03-17T00:28:55.700Z,85.82
2023-03-17T00:29:55.697Z,85.71
2023-03-17T00:30:55.750Z,85.71
2023-03-17T00:31:55.687Z,85.10
2023-03-17T00:32:55.766Z,85.30
2023-03-17T00:33:55.682Z,85.20
2023-03-17T00:34:55.669Z,86.02
2023-03-17T00:35:55.729Z,85.30
2023-03-17T00:36:55.661Z,85.92
2023-03-17T00:37:55.794Z,85.92
2023-03-17T00:38:55.652Z,85.92
2023-03-17T00:39:55.657Z,86.23
2023-03-17T00:40:55.639Z,85.61
2023-03-17T00:41:55.642Z,86.06
2023-03-17T00:42:55.635Z,86.16
2023-03-17T00:43:55.631Z,86.23
2023-03-17T00:44:55.624Z,86.06
2023-03-17T00:45:55.624Z,86.06
2023-03-17T00:46:55.716Z,86.27
2023-03-17T00:47:55.613Z,86.16
2023-03-17T00:48:55.622Z,86.06
2023-03-17T00:49:55.601Z,86.16
2023-03-17T00:50:55.595Z,86.79
2023-03-17T00:51:55.596Z,86.33
2023-03-17T00:52:55.589Z,86.33
2023-03-17T00:53:55.611Z,86.85
2023-03-17T00:54:55.581Z,86.37
2023-03-17T00:55:55.578Z,86.79
2023-03-17T00:56:55.568Z,86.99
2023-03-17T00:57:55.567Z,86.88
2023-03-17T00:58:55.581Z,86.99
2023-03-17T00:59:55.556Z,87.19
2023-03-17T01:00:55.588Z,87.30
2023-03-17T01:01:55.671Z,86.88
2023-03-17T01:02:55.544Z,87.30
2023-03-17T01:03:55.539Z,87.60
2023-03-17T01:05:05.401Z,87.81
2023-03-17T01:05:55.533Z,87.92
2023-03-17T01:06:55.547Z,88.06
2023-03-17T01:07:55.519Z,87.96
2023-03-17T01:08:55.524Z,88.06
2023-03-17T01:09:55.546Z,87.85
2023-03-17T01:10:55.524Z,88.78
2023-03-17T01:11:55.547Z,88.78
2023-03-17T01:12:55.545Z,88.68
2023-03-17T01:13:55.494Z,88.47
2023-03-17T01:14:55.494Z,88.37
2023-03-17T01:15:55.593Z,88.37
2023-03-17T01:16:55.488Z,88.43
2023-03-17T01:17:55.470Z,88.23
2023-03-17T01:18:55.512Z,88.02
2023-03-17T01:19:55.465Z,88.23
2023-03-17T01:20:55.476Z,88.23
2023-03-17T01:21:55.458Z,88.33
2023-03-17T01:22:55.454Z,88.53
2023-03-17T01:23:55.457Z,88.53
2023-03-17T01:24:55.445Z,88.12
2023-03-17T01:25:55.464Z,88.12
2023-03-17T01:26:55.439Z,88.84
2023-03-17T01:27:55.429Z,88.33
2023-03-17T01:28:55.431Z,88.23
2023-03-17T01:29:55.424Z,88.84
2023-03-17T01:30:55.478Z,88.53
2023-03-17T01:31:55.530Z,88.95
2023-03-17T01:32:55.439Z,88.17
2023-03-17T01:33:55.402Z,88.95
2023-03-17T01:34:55.404Z,88.89
2023-03-17T01:35:55.453Z,88.89
2023-03-17T01:36:55.402Z,89.61
2023-03-17T01:37:55.388Z,89.61
2023-03-17T01:38:55.388Z,88.84
2023-03-17T01:39:55.378Z,89.19
2023-03-17T01:40:55.376Z,89.36
2023-03-17T01:41:55.393Z,89.46
2023-03-17T01:42:55.367Z,89.15
2023-03-17T01:43:55.392Z,88.99
2023-03-17T01:44:55.362Z,89.25
2023-03-17T01:45:55.436Z,89.40
2023-03-17T01:46:55.355Z,89.09
2023-03-17T01:47:55.339Z,88.95
2023-03-17T01:48:55.348Z,89.15
2023-03-17T01:49:55.329Z,88.64
2023-03-17T01:50:55.326Z,88.80
2023-03-17T01:51:55.327Z,88.23
2023-03-17T01:52:55.322Z,88.64
2023-03-17T01:53:55.318Z,88.64
2023-03-17T01:54:55.312Z,88.84
2023-03-17T01:55:55.308Z,89.01
2023-03-17T01:56:55.299Z,88.43
2023-03-17T01:57:55.319Z,88.74
2023-03-17T01:58:55.296Z,88.99
2023-03-17T01:59:55.288Z,88.99
2023-03-17T02:00:55.302Z,89.15
2023-03-17T02:01:55.278Z,89.05
2023-03-17T02:02:55.272Z,88.95
2023-03-17T02:03:55.351Z,88.84
2023-03-17T02:04:55.274Z,88.43
2023-03-17T02:05:55.262Z,88.53
2023-03-17T02:06:58.364Z,88.84
2023-03-17T02:07:55.246Z,89.05
2023-03-17T02:08:55.253Z,89.25
2023-03-17T02:09:55.239Z,89.19
2023-03-17T02:10:55.246Z,88.74
2023-03-17T02:11:55.229Z,89.46
2023-03-17T02:12:55.232Z,89.25
2023-03-17T02:13:55.245Z,89.19
2023-03-17T02:14:55.220Z,89.71
2023-03-17T02:15:55.218Z,89.56
2023-03-17T02:16:55.250Z,88.57
2023-03-17T02:17:55.204Z,88.84
2023-03-17T02:18:55.202Z,89.19
2023-03-17T02:19:55.202Z,88.89
2023-03-17T02:20:55.191Z,89.09
2023-03-17T02:21:55.200Z,88.89
2023-03-17T02:22:55.182Z,89.46
2023-03-17T02:23:55.183Z,88.78
2023-03-17T02:24:55.168Z,88.89
2023-03-17T02:25:55.162Z,89.25
2023-03-17T02:26:55.168Z,88.64
2023-03-17T02:27:55.154Z,89.19
2023-03-17T02:28:55.162Z,89.54
2023-03-17T02:29:55.171Z,89.81
2023-03-17T02:30:55.173Z,89.34
2023-03-17T02:31:55.136Z,89.50
2023-03-17T02:32:55.175Z,89.19
2023-03-17T02:33:55.130Z,89.50
2023-03-17T02:34:55.128Z,88.89
2023-03-17T02:35:55.172Z,89.19
2023-03-17T02:36:55.163Z,89.09
2023-03-17T02:37:55.113Z,88.68
2023-03-17T02:38:55.113Z,89.50
2023-03-17T02:39:55.107Z,88.99
2023-03-17T02:40:55.101Z,89.15
2023-03-17T02:41:55.095Z,88.53
2023-03-17T02:42:55.088Z,89.05
2023-03-17T02:43:55.087Z,88.64
2023-03-17T02:44:55.087Z,88.02
2023-03-17T02:45:55.151Z,88.74
2023-03-17T02:46:55.076Z,88.53
2023-03-17T02:47:55.069Z,88.95
2023-03-17T02:48:55.070Z,88.68
2023-03-17T02:49:55.059Z,88.47
2023-03-17T02:50:55.058Z,88.99
2023-03-17T02:51:55.048Z,88.89
2023-03-17T02:52:55.055Z,88.37
2023-03-17T02:53:55.042Z,88.33
2023-03-17T02:54:55.037Z,88.33
2023-03-17T02:55:55.032Z,88.64
2023-03-17T02:56:55.035Z,88.84
2023-03-17T02:57:55.037Z,88.64
2023-03-17T02:58:55.021Z,88.64
2023-03-17T02:59:55.014Z,88.78
2023-03-17T03:00:55.013Z,88.68
2023-03-17T03:01:55.029Z,88.53
2023-03-17T03:02:55.049Z,88.26
2023-03-17T03:03:54.996Z,88.89
2023-03-17T03:04:54.992Z,88.26
2023-03-17T03:05:54.986Z,88.57
2023-03-17T03:06:54.989Z,88.68
2023-03-17T03:07:54.974Z,88.26
2023-03-17T03:08:54.993Z,88.17
2023-03-17T03:09:54.970Z,88.17
2023-03-17T03:10:54.970Z,88.89
2023-03-17T03:11:54.960Z,88.26
2023-03-17T03:12:54.955Z,87.75
2023-03-17T03:13:54.947Z,87.96
2023-03-17T03:14:54.951Z,87.75
2023-03-17T03:15:54.998Z,88.06
2023-03-17T03:16:54.940Z,88.17
2023-03-17T03:17:54.953Z,87.96
2023-03-17T03:18:54.930Z,88.68
2023-03-17T03:19:54.936Z,88.10
2023-03-17T03:20:54.918Z,88.62
2023-03-17T03:21:54.915Z,88.17
2023-03-17T03:22:54.910Z,87.85
2023-03-17T03:23:54.906Z,87.75
2023-03-17T03:24:54.899Z,87.85
2023-03-17T03:25:54.892Z,87.96
2023-03-17T03:26:54.897Z,87.81
2023-03-17T03:27:54.887Z,87.60
2023-03-17T03:28:54.887Z,87.19
2023-03-17T03:29:54.879Z,87.24
2023-03-17T03:30:54.904Z,87.51
2023-03-17T03:31:54.869Z,87.13
2023-03-17T03:32:54.906Z,87.24
2023-03-17T03:33:54.871Z,87.30
2023-03-17T03:34:54.851Z,88.02
2023-03-17T03:35:54.894Z,87.40
2023-03-17T03:36:54.848Z,87.60
2023-03-17T03:37:54.836Z,87.19
2023-03-17T03:38:54.838Z,87.13
2023-03-17T03:39:54.831Z,87.03
2023-03-17T03:40:54.836Z,87.24
2023-03-17T03:41:54.821Z,87.09
2023-03-17T03:42:54.820Z,87.09
2023-03-17T03:43:54.809Z,87.09
2023-03-17T03:44:54.805Z,87.51
2023-03-17T03:45:54.795Z,87.81
2023-03-17T03:46:54.798Z,87.03
2023-03-17T03:47:54.785Z,87.54
2023-03-17T03:48:54.789Z,87.24
2023-03-17T03:49:54.800Z,87.44
2023-03-17T03:50:54.776Z,87.44
2023-03-17T03:51:54.772Z,87.03
2023-03-17T03:52:54.772Z,87.34
2023-03-17T03:53:54.769Z,87.81
2023-03-17T03:54:54.762Z,87.34
2023-03-17T03:55:54.758Z,87.75
2023-03-17T03:56:54.752Z,87.54
2023-03-17T03:57:54.747Z,87.60
2023-03-17T03:58:54.749Z,87.09
2023-03-17T03:59:54.784Z,87.60
2023-03-17T04:00:54.731Z,87.60
2023-03-17T04:01:54.724Z,86.88
2023-03-17T04:02:54.897Z,86.58
2023-03-17T04:03:54.713Z,87.51
2023-03-17T04:04:54.744Z,87.54
2023-03-17T04:05:54.722Z,86.99
2023-03-17T04:06:54.712Z,87.09
2023-03-17T04:07:54.702Z,86.79
2023-03-17T04:08:57.072Z,86.93
2023-03-17T04:09:54.687Z,87.65
2023-03-17T04:10:54.694Z,87.24
2023-03-17T04:11:54.678Z,86.93
2023-03-17T04:12:54.685Z,87.75
2023-03-17T04:13:54.677Z,87.34
2023-03-17T04:14:54.668Z,87.24
2023-03-17T04:15:54.692Z,87.96
2023-03-17T04:16:54.662Z,87.75
2023-03-17T04:17:54.649Z,87.85
2023-03-17T04:18:54.687Z,87.85
2023-03-17T04:19:54.638Z,87.24
2023-03-17T04:20:54.644Z,87.44
2023-03-17T04:21:54.886Z,87.65
2023-03-17T04:22:54.634Z,87.13
2023-03-17T04:23:54.624Z,87.27
2023-03-17T04:24:54.634Z,87.79
2023-03-17T04:25:54.615Z,88.10
2023-03-17T04:26:54.608Z,87.99
2023-03-17T04:27:54.603Z,87.90
2023-03-17T04:28:54.599Z,87.90
2023-03-17T04:29:54.597Z,88.10
2023-03-17T04:30:54.594Z,87.79
2023-03-17T04:31:54.645Z,88.41
2023-03-17T04:32:54.623Z,87.75
2023-03-17T04:33:54.594Z,87.79
2023-03-17T04:34:54.574Z,88.20
2023-03-17T04:35:54.646Z,87.90
2023-03-17T04:36:54.569Z,88.41
2023-03-17T04:37:54.582Z,88.62
2023-03-17T04:38:54.558Z,88.24
2023-03-17T04:39:54.551Z,88.56
2023-03-17T04:40:54.546Z,89.17
2023-03-17T04:41:54.540Z,89.38
2023-03-17T04:42:54.537Z,89.58
2023-03-17T04:43:54.529Z,89.58
2023-03-17T04:44:54.537Z,89.62
2023-03-17T04:45:54.607Z,89.32
2023-03-17T04:46:54.522Z,89.79
2023-03-17T04:47:54.506Z,89.07
2023-03-17T04:48:54.505Z,88.65
2023-03-17T04:49:54.504Z,89.07
2023-03-17T04:50:54.504Z,88.82
2023-03-17T04:51:54.496Z,88.65
2023-03-17T04:52:54.502Z,88.62
2023-03-17T04:53:54.512Z,88.31
2023-03-17T04:54:54.477Z,88.65
2023-03-17T04:55:54.472Z,89.17
2023-03-17T04:56:54.477Z,89.13
2023-03-17T04:57:54.465Z,89.58
2023-03-17T04:58:54.461Z,90.37
2023-03-17T04:59:54.470Z,90.06
2023-03-17T05:00:54.485Z,90.06
2023-03-17T05:01:54.472Z,89.13
2023-03-17T05:02:54.446Z,88.51
2023-03-17T05:03:54.441Z,88.92
2023-03-17T05:04:54.437Z,89.07
2023-03-17T05:05:54.462Z,88.76
2023-03-17T05:06:54.427Z,88.86
2023-03-17T05:07:54.419Z,88.86
2023-03-17T05:08:54.425Z,89.07
2023-03-17T05:09:54.439Z,88.45
2023-03-17T05:10:54.409Z,88.59
2023-03-17T05:11:54.399Z,89.01
2023-03-17T05:12:54.404Z,89.01
2023-03-17T05:13:54.392Z,89.22
2023-03-17T05:14:54.392Z,89.11
2023-03-17T05:15:54.392Z,88.90
2023-03-17T05:16:54.456Z,89.07
2023-03-17T05:17:54.376Z,89.07
2023-03-17T05:18:54.370Z,88.96
2023-03-17T05:19:54.369Z,88.96
2023-03-17T05:20:54.355Z,88.72
2023-03-17T05:21:54.356Z,88.76
2023-03-17T05:22:54.344Z,88.35
2023-03-17T05:23:55.054Z,88.45
2023-03-17T05:24:54.339Z,88.45
2023-03-17T05:25:54.366Z,89.42
2023-03-17T05:26:54.335Z,89.62
2023-03-17T05:27:54.329Z,89.77
2023-03-17T05:28:54.320Z,89.62
2023-03-17T05:29:54.320Z,89.94
2023-03-17T05:30:54.392Z,89.87
2023-03-17T05:31:54.309Z,89.22
2023-03-17T05:32:54.393Z,88.80
2023-03-17T05:33:54.304Z,89.48
2023-03-17T05:34:54.289Z,89.42
2023-03-17T05:35:54.299Z,89.32
2023-03-17T05:36:54.283Z,88.90
2023-03-17T05:37:54.276Z,88.86
2023-03-17T05:38:54.281Z,88.76
2023-03-17T05:39:54.288Z,88.41
2023-03-17T05:40:54.263Z,88.72
2023-03-17T05:41:54.286Z,88.41
2023-03-17T05:42:54.252Z,88.72
2023-03-17T05:43:54.253Z,88.20
2023-03-17T05:44:54.243Z,88.10
2023-03-17T05:45:54.261Z,87.79
2023-03-17T05:46:54.231Z,87.59
2023-03-17T05:47:54.226Z,87.79
2023-03-17T05:48:54.241Z,87.59
2023-03-17T05:49:54.222Z,87.48
2023-03-17T05:50:54.213Z,87.69
2023-03-17T05:51:54.212Z,87.69
2023-03-17T05:52:54.200Z,87.69
2023-03-17T05:53:54.201Z,87.69
2023-03-17T05:54:54.196Z,87.79
2023-03-17T05:55:54.193Z,87.38
2023-03-17T05:56:54.204Z,87.79
2023-03-17T05:57:54.209Z,87.17
2023-03-17T05:58:54.192Z,87.96
2023-03-17T05:59:54.180Z,87.79
2023-03-17T06:00:54.169Z,87.24
2023-03-17T06:01:54.176Z,87.54
2023-03-17T06:02:54.166Z,86.82
2023-03-17T06:03:54.235Z,86.99
2023-03-17T06:04:54.150Z,87.03
2023-03-17T06:05:54.154Z,86.82
2023-03-17T06:06:54.144Z,86.88
2023-03-17T06:07:56.394Z,86.16
2023-03-17T06:08:54.168Z,86.41
2023-03-17T06:09:54.139Z,86.06
2023-03-17T06:10:54.127Z,86.41
2023-03-17T06:11:54.124Z,86.37
2023-03-17T06:12:54.111Z,86.52
2023-03-17T06:13:54.137Z,86.31
2023-03-17T06:14:54.103Z,86.10
2023-03-17T06:15:54.161Z,86.41
2023-03-17T06:16:54.098Z,86.37
2023-03-17T06:17:54.098Z,86.06
2023-03-17T06:18:54.096Z,86.21
2023-03-17T06:19:54.094Z,87.51
2023-03-17T06:20:54.089Z,86.58
2023-03-17T06:21:54.082Z,86.37
2023-03-17T06:23:04.011Z,86.27
2023-03-17T06:23:54.068Z,86.27
2023-03-17T06:24:56.073Z,86.37
2023-03-17T06:25:54.062Z,87.19
2023-03-17T06:26:54.049Z,86.88
2023-03-17T06:27:54.043Z,87.30
2023-03-17T06:28:54.036Z,86.52
2023-03-17T06:29:54.061Z,87.75
2023-03-17T06:30:54.142Z,86.82
2023-03-17T06:31:54.035Z,86.88
2023-03-17T06:32:54.116Z,86.47
2023-03-17T06:33:54.022Z,86.99
2023-03-17T06:34:54.023Z,86.79
2023-03-17T06:35:54.033Z,86.33
2023-03-17T06:36:54.026Z,86.13
2023-03-17T06:37:54.017Z,86.37
2023-03-17T06:38:53.992Z,86.23
2023-03-17T06:39:54.006Z,85.61
2023-03-17T06:40:53.981Z,85.41
2023-03-17T06:41:53.988Z,85.82
2023-03-17T06:42:53.990Z,86.13
2023-03-17T06:43:53.976Z,85.92
2023-03-17T06:44:53.977Z,85.82
2023-03-17T06:45:53.992Z,85.61
2023-03-17T06:46:54.144Z,86.13
2023-03-17T06:47:53.960Z,85.92
2023-03-17T06:48:53.952Z,85.51
2023-03-17T06:49:53.949Z,86.02
2023-03-17T06:50:53.938Z,86.02
2023-03-17T06:51:53.941Z,86.23
2023-03-17T06:52:53.936Z,85.71
2023-03-17T06:53:53.929Z,85.61
2023-03-17T06:54:53.930Z,86.13
2023-03-17T06:55:53.934Z,85.71
2023-03-17T06:56:53.915Z,85.36
2023-03-17T06:57:53.933Z,85.92
2023-03-17T06:58:53.928Z,85.51
2023-03-17T06:59:53.900Z,85.92
2023-03-17T07:00:53.909Z,85.92
2023-03-17T07:01:54.142Z,86.33
2023-03-17T07:02:53.887Z,85.88
2023-03-17T07:03:53.901Z,85.51
2023-03-17T07:04:53.921Z,85.47
2023-03-17T07:05:53.875Z,85.47
2023-03-17T07:06:53.864Z,84.81
2023-03-17T07:07:53.871Z,84.64
2023-03-17T07:08:53.862Z,85.43
2023-03-17T07:09:53.856Z,85.63
2023-03-17T07:10:53.852Z,84.81
2023-03-17T07:11:53.877Z,84.26
2023-03-17T07:12:53.848Z,84.26
2023-03-17T07:13:53.843Z,84.05
2023-03-17T07:14:53.834Z,84.12
2023-03-17T07:15:55.402Z,84.32
2023-03-17T07:16:53.838Z,84.28
2023-03-17T07:17:53.869Z,83.09
2023-03-17T07:18:53.822Z,83.70
2023-03-17T07:19:53.812Z,84.28
2023-03-17T07:20:53.821Z,83.77
2023-03-17T07:21:53.806Z,83.77
2023-03-17T07:22:53.800Z,82.54
2023-03-17T07:23:53.798Z,83.42
2023-03-17T07:24:53.803Z,83.12
2023-03-17T07:25:53.796Z,82.87
2023-03-17T07:26:53.785Z,82.70
2023-03-17T07:27:53.803Z,82.56
2023-03-17T07:28:53.807Z,82.67
2023-03-17T07:29:53.792Z,81.74
2023-03-17T07:30:53.776Z,80.99
2023-03-17T07:31:53.786Z,81.40
2023-03-17T07:32:53.922Z,81.32
2023-03-17T07:33:55.879Z,80.77
2023-03-17T07:34:53.765Z,79.82
2023-03-17T07:35:53.809Z,80.33
2023-03-17T07:36:53.746Z,79.71
2023-03-17T07:37:53.775Z,79.61
2023-03-17T07:38:53.761Z,79.64
2023-03-17T07:39:53.736Z,79.41
2023-03-17T07:40:53.730Z,79.50
2023-03-17T07:41:53.734Z,79.57
2023-03-17T07:42:53.728Z,78.99
2023-03-17T07:43:53.769Z,78.13
2023-03-17T07:44:53.743Z,76.39
2023-03-17T07:45:53.765Z,75.74
2023-03-17T07:46:53.729Z,75.10
2023-03-17T07:47:53.713Z,73.97
2023-03-17T07:48:53.737Z,73.54
2023-03-17T07:49:53.736Z,73.80
2023-03-17T07:50:53.691Z,73.16
2023-03-17T07:51:53.695Z,72.62
2023-03-17T07:52:53.744Z,71.87
2023-03-17T07:53:53.688Z,72.38
2023-03-17T07:54:53.693Z,72.08
2023-03-17T07:55:53.691Z,71.26
2023-03-17T07:56:53.678Z,71.19
2023-03-17T07:57:53.763Z,71.91
2023-03-17T07:58:53.662Z,71.50
2023-03-17T07:59:53.677Z,70.86
2023-03-17T08:00:53.698Z,72.58
2023-03-17T08:01:53.684Z,73.13
2023-03-17T08:03:06.786Z,72.89
2023-03-17T08:03:53.717Z,73.36
2023-03-17T08:04:53.657Z,72.65
2023-03-17T08:05:53.675Z,73.33
2023-03-17T08:06:53.660Z,73.77
2023-03-17T08:07:53.657Z,73.33
2023-03-17T08:08:53.645Z,72.08
2023-03-17T08:09:53.694Z,71.67
2023-03-17T08:10:53.641Z,70.68
2023-03-17T08:11:53.674Z,70.59
2023-03-17T08:12:53.636Z,68.09
2023-03-17T08:13:53.649Z,68.63
2023-03-17T08:14:53.630Z,67.05
2023-03-17T08:15:53.673Z,68.09
2023-03-17T08:16:53.721Z,68.15
2023-03-17T08:17:53.668Z,68.29
2023-03-17T08:18:53.643Z,68.52
2023-03-17T08:19:53.653Z,67.96
2023-03-17T08:20:53.650Z,66.91
2023-03-17T08:21:53.659Z,66.18
2023-03-17T08:22:53.623Z,65.55
2023-03-17T08:23:53.644Z,64.39
2023-03-17T08:24:53.629Z,61.58
2023-03-17T08:25:53.644Z,59.80
2023-03-17T08:26:53.639Z,59.98
2023-03-17T08:27:53.642Z,60.19
2023-03-17T08:28:53.626Z,60.25
2023-03-17T08:29:53.624Z,60.75
2023-03-17T08:30:53.699Z,61.77
2023-03-17T08:31:53.688Z,60.28
2023-03-17T08:32:53.699Z,60.64
2023-03-17T08:33:53.692Z,62.77
2023-03-17T08:34:53.611Z,64.49
2023-03-17T08:35:53.713Z,63.58
2023-03-17T08:36:53.616Z,63.65
2023-03-17T08:37:56.123Z,63.68
2023-03-17T08:38:53.631Z,64.43
2023-03-17T08:39:53.621Z,63.90
2023-03-17T08:40:53.630Z,62.65
2023-03-17T08:41:53.632Z,62.93
2023-03-17T08:42:53.623Z,62.05
2023-03-17T08:43:53.633Z,62.59
2023-03-17T08:44:53.614Z,62.18
2023-03-17T08:45:53.649Z,64.37
2023-03-17T08:46:53.624Z,63.70
2023-03-17T08:47:53.630Z,62.80
2023-03-17T08:48:53.614Z,62.60
2023-03-17T08:49:53.620Z,62.62
2023-03-17T08:50:53.627Z,64.09
2023-03-17T08:51:53.616Z,64.56
2023-03-17T08:52:53.635Z,64.07
2023-03-17T08:53:53.644Z,62.76
2023-03-17T08:54:53.616Z,63.43
2023-03-17T08:55:53.628Z,63.20
2023-03-17T08:56:53.625Z,61.72
2023-03-17T08:57:53.627Z,62.95
2023-03-17T08:58:53.627Z,64.65
2023-03-17T08:59:53.656Z,64.85
2023-03-17T09:00:53.625Z,66.80
2023-03-17T09:01:53.720Z,67.44
2023-03-17T09:02:53.720Z,67.88
2023-03-17T09:03:53.633Z,68.19
2023-03-17T09:04:53.644Z,68.01
2023-03-17T09:05:53.627Z,68.42
2023-03-17T09:07:02.876Z,68.45
2023-03-17T09:07:53.715Z,68.83
2023-03-17T09:08:53.628Z,68.28
2023-03-17T09:09:53.682Z,70.35
2023-03-17T09:10:53.627Z,71.57
2023-03-17T09:11:53.622Z,70.14
2023-03-17T09:12:53.622Z,70.52
2023-03-17T09:13:53.633Z,70.21
2023-03-17T09:14:53.628Z,70.01
2023-03-17T09:15:53.655Z,70.72
2023-03-17T09:16:53.630Z,69.98
2023-03-17T09:17:53.625Z,70.21
2023-03-17T09:18:53.626Z,70.01
2023-03-17T09:19:53.622Z,70.72
2023-03-17T09:20:53.619Z,71.12
2023-03-17T09:21:53.621Z,71.84
2023-03-17T09:22:53.614Z,71.84
2023-03-17T09:23:53.620Z,71.20
2023-03-17T09:24:53.614Z,69.60
2023-03-17T09:25:53.634Z,70.65
2023-03-17T09:26:53.615Z,71.43
2023-03-17T09:27:53.621Z,71.12
2023-03-17T09:28:53.618Z,70.59
2023-03-17T09:29:53.614Z,69.54
2023-03-17T09:30:53.723Z,69.84
2023-03-17T09:31:53.617Z,69.03
2023-03-17T09:32:53.712Z,69.03
2023-03-17T09:33:53.619Z,69.00
2023-03-17T09:34:53.609Z,69.17
2023-03-17T09:35:53.658Z,69.03
2023-03-17T09:36:53.618Z,68.12
2023-03-17T09:37:53.607Z,68.46
2023-03-17T09:38:53.619Z,68.66
2023-03-17T09:39:53.604Z,67.72
2023-03-17T09:40:53.617Z,68.05
2023-03-17T09:41:53.651Z,68.35
2023-03-17T09:42:53.640Z,68.56
2023-03-17T09:43:53.605Z,68.35
2023-03-17T09:44:53.615Z,68.70
2023-03-17T09:45:53.606Z,69.30
2023-03-17T09:46:53.729Z,69.10
2023-03-17T09:47:53.599Z,68.83
2023-03-17T09:48:53.604Z,68.60
2023-03-17T09:49:53.597Z,68.87
2023-03-17T09:50:53.605Z,68.32
2023-03-17T09:51:53.603Z,67.79
2023-03-17T09:52:53.606Z,68.49
2023-03-17T09:53:53.603Z,68.40
2023-03-17T09:54:53.604Z,68.84
2023-03-17T09:55:53.595Z,67.59
2023-03-17T09:56:53.608Z,66.55
2023-03-17T09:57:53.619Z,66.44
2023-03-17T09:58:53.599Z,66.21
2023-03-17T09:59:53.602Z,66.41
2023-03-17T10:00:53.613Z,66.48
2023-03-17T10:01:53.655Z,66.61
2023-03-17T10:02:53.653Z,65.95
2023-03-17T10:03:53.595Z,64.81
2023-03-17T10:04:53.668Z,65.24
2023-03-17T10:05:53.594Z,64.64
2023-03-17T10:06:53.593Z,65.24
2023-03-17T10:07:53.593Z,64.64
2023-03-17T10:08:53.590Z,64.90
2023-03-17T10:09:53.588Z,64.58
2023-03-17T10:10:53.596Z,64.54
2023-03-17T10:11:53.613Z,65.05
2023-03-17T10:12:53.607Z,66.42
2023-03-17T10:13:53.627Z,65.31
2023-03-17T10:14:53.603Z,66.39
2023-03-17T10:15:53.634Z,64.27
2023-03-17T10:16:53.593Z,65.01
2023-03-17T10:17:53.584Z,66.02
2023-03-17T10:18:53.594Z,64.40
2023-03-17T10:19:53.591Z,64.84
2023-03-17T10:20:53.588Z,65.44
2023-03-17T10:21:53.589Z,65.21
2023-03-17T10:22:53.595Z,64.98
2023-03-17T10:23:53.587Z,65.08
2023-03-17T10:24:53.589Z,64.00
2023-03-17T10:25:53.625Z,64.95
2023-03-17T10:26:53.581Z,64.41
2023-03-17T10:27:53.579Z,63.50
2023-03-17T10:28:53.583Z,63.90
2023-03-17T10:29:53.603Z,64.41
2023-03-17T10:30:53.581Z,63.50
2023-03-17T10:31:54.601Z,64.01
2023-03-17T10:32:53.614Z,63.30
2023-03-17T10:33:53.588Z,62.37
2023-03-17T10:34:53.598Z,63.57
2023-03-17T10:35:53.590Z,64.38
2023-03-17T10:36:53.597Z,63.90
2023-03-17T10:38:07.973Z,63.84
2023-03-17T10:38:53.581Z,63.84
2023-03-17T10:39:53.584Z,64.67
2023-03-17T10:40:53.586Z,64.78
2023-03-17T10:41:53.588Z,65.05
2023-03-17T10:42:53.583Z,64.54
2023-03-17T10:43:53.596Z,65.72
2023-03-17T10:44:53.581Z,64.51
2023-03-17T10:45:53.600Z,65.32
2023-03-17T10:46:53.618Z,65.15
2023-03-17T10:47:53.578Z,66.13
2023-03-17T10:48:53.593Z,64.28
2023-03-17T10:49:53.614Z,64.11
2023-03-17T10:50:54.427Z,65.25
2023-03-17T10:51:53.578Z,66.46
2023-03-17T10:52:53.579Z,66.02
2023-03-17T10:53:53.573Z,64.92
2023-03-17T10:54:53.581Z,65.19
2023-03-17T10:55:53.577Z,63.85
2023-03-17T10:56:53.579Z,64.35
2023-03-17T10:57:53.574Z,63.65
2023-03-17T10:58:53.607Z,63.34
2023-03-17T10:59:53.589Z,63.81
2023-03-17T11:00:53.679Z,64.24
2023-03-17T11:01:53.596Z,63.93
2023-03-17T11:02:53.627Z,65.75
2023-03-17T11:03:53.664Z,64.54
2023-03-17T11:04:53.578Z,65.95
2023-03-17T11:05:53.587Z,65.05
2023-03-17T11:06:53.584Z,64.90
2023-03-17T11:07:53.578Z,64.56
2023-03-17T11:08:53.600Z,65.37
2023-03-17T11:09:53.579Z,66.18
2023-03-17T11:10:53.584Z,65.34
2023-03-17T11:11:53.581Z,66.38
2023-03-17T11:12:53.580Z,66.55
2023-03-17T11:13:53.580Z,66.12
2023-03-17T11:14:53.589Z,66.08
2023-03-17T11:15:53.578Z,65.99
2023-03-17T11:16:53.576Z,66.19
2023-03-17T11:17:53.606Z,65.35
2023-03-17T11:18:53.583Z,64.84
2023-03-17T11:19:53.580Z,63.96
2023-03-17T11:20:53.578Z,63.93
2023-03-17T11:21:53.576Z,64.24
2023-03-17T11:22:53.584Z,64.64
2023-03-17T11:23:53.580Z,65.25
2023-03-17T11:24:53.584Z,65.35
2023-03-17T11:25:53.572Z,64.54
2023-03-17T11:26:53.581Z,65.35
2023-03-17T11:27:53.575Z,64.64
2023-03-17T11:28:53.579Z,64.54
2023-03-17T11:29:53.576Z,64.41
2023-03-17T11:30:53.579Z,64.44
2023-03-17T11:31:53.630Z,63.87
2023-03-17T11:32:53.652Z,65.15
2023-03-17T11:33:53.602Z,64.54
2023-03-17T11:34:53.579Z,63.73
2023-03-17T11:35:53.603Z,64.54
2023-03-17T11:36:55.388Z,63.81
2023-03-17T11:37:53.571Z,64.58
2023-03-17T11:38:53.580Z,64.65
2023-03-17T11:39:53.576Z,63.24
2023-03-17T11:40:53.580Z,63.54
2023-03-17T11:41:53.577Z,64.45
2023-03-17T11:42:54.806Z,63.95
2023-03-17T11:43:53.573Z,65.26
2023-03-17T11:44:53.575Z,63.62
2023-03-17T11:45:53.622Z,63.71
2023-03-17T11:46:53.586Z,64.49
2023-03-17T11:47:53.581Z,64.66
2023-03-17T11:48:53.581Z,64.16
2023-03-17T11:49:53.599Z,64.03
2023-03-17T11:50:53.588Z,63.29
2023-03-17T11:51:53.576Z,62.55
2023-03-17T11:52:53.581Z,62.75
2023-03-17T11:53:53.576Z,63.39
2023-03-17T11:54:55.971Z,63.45
2023-03-17T11:55:53.574Z,63.73
2023-03-17T11:56:53.576Z,63.93
2023-03-17T11:57:53.576Z,62.95
2023-03-17T11:58:53.583Z,62.24
2023-03-17T11:59:53.568Z,62.85
2023-03-17T12:00:53.575Z,64.76
2023-03-17T12:01:53.576Z,63.18
2023-03-17T12:02:53.573Z,62.27
2023-03-17T12:03:53.739Z,64.19
2023-03-17T12:04:53.575Z,63.59
2023-03-17T12:05:53.591Z,62.48
2023-03-17T12:06:54.967Z,62.18
2023-03-17T12:07:53.575Z,62.71
2023-03-17T12:08:53.584Z,63.31
2023-03-17T12:09:53.572Z,63.79
2023-03-17T12:10:53.576Z,63.92
2023-03-17T12:11:53.568Z,64.02
2023-03-17T12:12:53.580Z,64.22
2023-03-17T12:13:53.574Z,64.52
2023-03-17T12:14:53.571Z,64.28
2023-03-17T12:15:53.609Z,63.70
2023-03-17T12:16:53.578Z,64.31
2023-03-17T12:17:53.572Z,64.01
2023-03-17T12:18:53.586Z,64.55
2023-03-17T12:19:53.578Z,63.98
2023-03-17T12:20:53.571Z,64.05
2023-03-17T12:21:53.606Z,64.45
2023-03-17T12:22:55.172Z,63.85
2023-03-17T12:23:53.574Z,63.65
2023-03-17T12:24:53.575Z,65.06
2023-03-17T12:25:53.570Z,64.05
2023-03-17T12:26:53.573Z,63.31
2023-03-17T12:27:53.570Z,63.62
2023-03-17T12:28:55.216Z,63.42
2023-03-17T12:29:53.570Z,63.42
2023-03-17T12:30:53.624Z,64.22
2023-03-17T12:31:53.575Z,63.99
2023-03-17T12:32:53.671Z,63.31
2023-03-17T12:33:53.579Z,64.09
2023-03-17T12:34:55.437Z,64.16
2023-03-17T12:35:53.608Z,63.76
2023-03-17T12:36:53.578Z,63.59
2023-03-17T12:37:53.650Z,63.99
2023-03-17T12:38:53.575Z,64.09
2023-03-17T12:39:53.571Z,64.02
2023-03-17T12:40:53.588Z,63.68
2023-03-17T12:41:53.581Z,64.09
2023-03-17T12:42:53.594Z,64.36
2023-03-17T12:43:53.572Z,63.79
2023-03-17T12:44:53.574Z,63.28
2023-03-17T12:45:54.345Z,63.92
2023-03-17T12:46:53.599Z,63.75
2023-03-17T12:47:53.576Z,64.42
2023-03-17T12:48:53.576Z,63.51
2023-03-17T12:49:53.576Z,64.82
2023-03-17T12:50:53.578Z,64.52
2023-03-17T12:51:53.579Z,65.02
2023-03-17T12:52:53.576Z,63.92